sensor_id;sensor_type;location;lat;lon;timestamp;temperature;humidity
31979;DHT22;18502;43.574;1.276;2023-10-13T00:01:34;17.20;99.90
31979;DHT22;18502;43.574;1.276;2023-10-13T00:04:00;17.10;99.90
31979;DHT22;18502;43.574;1.276;2023-10-13T00:06:31;17.20;99.90
31979;DHT22;18502;43.574;1.276;2023-10-13T00:08:56;17.10;99.90
31979;DHT22;18502;43.574;1.276;2023-10-13T00:11:22;17.10;99.90
31979;DHT22;18502;43.574;1.276;2023-10-13T00:13:47;17.00;99.90
31979;DHT22;18502;43.574;1.276;2023-10-13T00:16:20;17.00;99.90
31979;DHT22;18502;43.574;1.276;2023-10-13T00:18:48;17.00;99.90
31979;DHT22;18502;43.574;1.276;2023-10-13T00:21:14;17.00;99.90
31979;DHT22;18502;43.574;1.276;2023-10-13T00:24:01;17.00;99.90
31979;DHT22;18502;43.574;1.276;2023-10-13T00:26:31;17.00;99.90
31979;DHT22;18502;43.574;1.276;2023-10-13T00:29:01;17.00;99.90
31979;DHT22;18502;43.574;1.276;2023-10-13T00:31:42;16.90;99.90
31979;DHT22;18502;43.574;1.276;2023-10-13T00:34:13;17.00;99.90
31979;DHT22;18502;43.574;1.276;2023-10-13T00:36:53;16.90;99.90
31979;DHT22;18502;43.574;1.276;2023-10-13T00:39:37;16.90;99.90
31979;DHT22;18502;43.574;1.276;2023-10-13T00:42:06;16.90;99.90
31979;DHT22;18502;43.574;1.276;2023-10-13T00:44:46;16.90;99.90
31979;DHT22;18502;43.574;1.276;2023-10-13T00:47:18;16.90;99.90
31979;DHT22;18502;43.574;1.276;2023-10-13T00:50:15;16.80;99.90
31979;DHT22;18502;43.574;1.276;2023-10-13T00:52:43;16.80;99.90
31979;DHT22;18502;43.574;1.276;2023-10-13T00:55:13;16.80;99.90
31979;DHT22;18502;43.574;1.276;2023-10-13T00:57:40;16.80;99.90
31979;DHT22;18502;43.574;1.276;2023-10-13T01:00:06;16.80;99.90
31979;DHT22;18502;43.574;1.276;2023-10-13T01:02:45;16.70;99.90
31979;DHT22;18502;43.574;1.276;2023-10-13T01:05:20;16.70;99.90
31979;DHT22;18502;43.574;1.276;2023-10-13T01:07:46;16.70;99.90
31979;DHT22;18502;43.574;1.276;2023-10-13T01:10:19;16.60;99.90
31979;DHT22;18502;43.574;1.276;2023-10-13T01:12:48;16.50;99.90
31979;DHT22;18502;43.574;1.276;2023-10-13T01:15:18;16.40;99.90
31979;DHT22;18502;43.574;1.276;2023-10-13T01:17:46;16.40;99.90
31979;DHT22;18502;43.574;1.276;2023-10-13T01:20:13;16.30;99.90
31979;DHT22;18502;43.574;1.276;2023-10-13T01:23:10;16.30;99.90
31979;DHT22;18502;43.574;1.276;2023-10-13T01:25:44;16.30;99.90
31979;DHT22;18502;43.574;1.276;2023-10-13T01:28:10;16.30;99.90
31979;DHT22;18502;43.574;1.276;2023-10-13T01:30:36;16.20;99.90
31979;DHT22;18502;43.574;1.276;2023-10-13T01:33:04;16.20;99.90
31979;DHT22;18502;43.574;1.276;2023-10-13T01:35:30;16.10;99.90
31979;DHT22;18502;43.574;1.276;2023-10-13T01:38:07;16.10;99.90
31979;DHT22;18502;43.574;1.276;2023-10-13T01:40:34;16.10;99.90
31979;DHT22;18502;43.574;1.276;2023-10-13T01:43:01;16.10;99.90
31979;DHT22;18502;43.574;1.276;2023-10-13T01:45:26;16.10;99.90
31979;DHT22;18502;43.574;1.276;2023-10-13T01:47:56;16.10;99.90
31979;DHT22;18502;43.574;1.276;2023-10-13T01:50:22;16.10;99.90
31979;DHT22;18502;43.574;1.276;2023-10-13T01:52:55;16.10;99.90
31979;DHT22;18502;43.574;1.276;2023-10-13T01:55:40;16.00;99.90
31979;DHT22;18502;43.574;1.276;2023-10-13T01:58:12;16.00;99.90
31979;DHT22;18502;43.574;1.276;2023-10-13T02:00:42;16.00;99.90
31979;DHT22;18502;43.574;1.276;2023-10-13T02:03:10;16.00;99.90
31979;DHT22;18502;43.574;1.276;2023-10-13T02:05:46;16.00;99.90
31979;DHT22;18502;43.574;1.276;2023-10-13T02:08:17;16.00;99.90
31979;DHT22;18502;43.574;1.276;2023-10-13T02:10:53;16.00;99.90
31979;DHT22;18502;43.574;1.276;2023-10-13T02:13:20;16.00;99.90
31979;DHT22;18502;43.574;1.276;2023-10-13T02:15:48;16.00;99.90
31979;DHT22;18502;43.574;1.276;2023-10-13T02:18:18;15.90;99.90
31979;DHT22;18502;43.574;1.276;2023-10-13T02:20:53;15.90;99.90
31979;DHT22;18502;43.574;1.276;2023-10-13T02:23:25;15.80;99.90
31979;DHT22;18502;43.574;1.276;2023-10-13T02:25:54;15.80;99.90
31979;DHT22;18502;43.574;1.276;2023-10-13T02:28:36;15.70;99.90
31979;DHT22;18502;43.574;1.276;2023-10-13T02:31:02;15.70;99.90
31979;DHT22;18502;43.574;1.276;2023-10-13T02:33:29;15.70;99.90
31979;DHT22;18502;43.574;1.276;2023-10-13T02:35:59;15.70;99.90
31979;DHT22;18502;43.574;1.276;2023-10-13T02:38:29;15.70;99.90
31979;DHT22;18502;43.574;1.276;2023-10-13T02:41:12;15.70;99.90
31979;DHT22;18502;43.574;1.276;2023-10-13T02:43:44;15.80;99.90
31979;DHT22;18502;43.574;1.276;2023-10-13T02:46:10;15.90;99.90
31979;DHT22;18502;43.574;1.276;2023-10-13T02:48:35;15.90;99.90
31979;DHT22;18502;43.574;1.276;2023-10-13T02:51:08;15.90;99.90
31979;DHT22;18502;43.574;1.276;2023-10-13T02:53:44;16.00;99.90
31979;DHT22;18502;43.574;1.276;2023-10-13T02:56:18;15.90;99.90
31979;DHT22;18502;43.574;1.276;2023-10-13T02:58:51;15.90;99.90
31979;DHT22;18502;43.574;1.276;2023-10-13T03:01:22;15.80;99.90
31979;DHT22;18502;43.574;1.276;2023-10-13T03:03:54;15.80;99.90
31979;DHT22;18502;43.574;1.276;2023-10-13T03:06:22;15.90;99.90
31979;DHT22;18502;43.574;1.276;2023-10-13T03:09:03;15.90;99.90
31979;DHT22;18502;43.574;1.276;2023-10-13T03:11:47;15.90;99.90
31979;DHT22;18502;43.574;1.276;2023-10-13T03:14:16;15.80;99.90
31979;DHT22;18502;43.574;1.276;2023-10-13T03:16:55;15.70;99.90
31979;DHT22;18502;43.574;1.276;2023-10-13T03:19:27;15.70;99.90
31979;DHT22;18502;43.574;1.276;2023-10-13T03:21:59;15.60;99.90
31979;DHT22;18502;43.574;1.276;2023-10-13T03:24:33;15.60;99.90
31979;DHT22;18502;43.574;1.276;2023-10-13T03:27:02;15.60;99.90
31979;DHT22;18502;43.574;1.276;2023-10-13T03:29:40;15.60;99.90
31979;DHT22;18502;43.574;1.276;2023-10-13T03:32:13;15.70;99.90
31979;DHT22;18502;43.574;1.276;2023-10-13T03:34:45;15.70;99.90
31979;DHT22;18502;43.574;1.276;2023-10-13T03:37:30;15.60;99.90
31979;DHT22;18502;43.574;1.276;2023-10-13T03:40:07;15.60;99.90
31979;DHT22;18502;43.574;1.276;2023-10-13T03:42:59;15.60;99.90
31979;DHT22;18502;43.574;1.276;2023-10-13T03:45:41;15.60;99.90
31979;DHT22;18502;43.574;1.276;2023-10-13T03:48:13;15.50;99.90
31979;DHT22;18502;43.574;1.276;2023-10-13T03:50:54;15.50;99.90
31979;DHT22;18502;43.574;1.276;2023-10-13T03:53:37;15.50;99.90
31979;DHT22;18502;43.574;1.276;2023-10-13T03:56:18;15.50;99.90
31979;DHT22;18502;43.574;1.276;2023-10-13T03:58:55;15.60;99.90
31979;DHT22;18502;43.574;1.276;2023-10-13T04:01:23;15.60;99.90
31979;DHT22;18502;43.574;1.276;2023-10-13T04:04:10;15.70;99.90
31979;DHT22;18502;43.574;1.276;2023-10-13T04:06:43;15.70;99.90
31979;DHT22;18502;43.574;1.276;2023-10-13T04:09:21;15.60;99.90
31979;DHT22;18502;43.574;1.276;2023-10-13T04:11:59;15.60;99.90
31979;DHT22;18502;43.574;1.276;2023-10-13T04:14:45;15.50;99.90
31979;DHT22;18502;43.574;1.276;2023-10-13T04:17:23;15.60;99.90
31979;DHT22;18502;43.574;1.276;2023-10-13T04:19:54;15.60;99.90
31979;DHT22;18502;43.574;1.276;2023-10-13T04:22:43;15.60;99.90
31979;DHT22;18502;43.574;1.276;2023-10-13T04:25:18;15.60;99.90
31979;DHT22;18502;43.574;1.276;2023-10-13T04:28:03;15.60;99.90
31979;DHT22;18502;43.574;1.276;2023-10-13T04:30:42;15.50;99.90
31979;DHT22;18502;43.574;1.276;2023-10-13T04:33:33;15.50;99.90
31979;DHT22;18502;43.574;1.276;2023-10-13T04:36:12;15.50;99.90
31979;DHT22;18502;43.574;1.276;2023-10-13T04:38:55;15.50;99.90
31979;DHT22;18502;43.574;1.276;2023-10-13T04:43:58;15.60;99.90
31979;DHT22;18502;43.574;1.276;2023-10-13T04:46:30;15.70;99.90
31979;DHT22;18502;43.574;1.276;2023-10-13T04:49:27;15.70;99.90
31979;DHT22;18502;43.574;1.276;2023-10-13T04:52:09;15.70;99.90
31979;DHT22;18502;43.574;1.276;2023-10-13T04:54:40;15.80;99.90
31979;DHT22;18502;43.574;1.276;2023-10-13T04:57:16;15.80;99.90
31979;DHT22;18502;43.574;1.276;2023-10-13T05:00:04;15.80;99.90
31979;DHT22;18502;43.574;1.276;2023-10-13T05:02:37;15.80;99.90
31979;DHT22;18502;43.574;1.276;2023-10-13T05:07:41;15.80;99.90
31979;DHT22;18502;43.574;1.276;2023-10-13T05:10:26;15.90;99.90
31979;DHT22;18502;43.574;1.276;2023-10-13T05:13:10;16.00;99.90
31979;DHT22;18502;43.574;1.276;2023-10-13T05:15:55;15.90;99.90
31979;DHT22;18502;43.574;1.276;2023-10-13T05:18:40;16.00;99.90
31979;DHT22;18502;43.574;1.276;2023-10-13T05:21:24;16.00;99.90
31979;DHT22;18502;43.574;1.276;2023-10-13T05:24:08;16.00;99.90
31979;DHT22;18502;43.574;1.276;2023-10-13T05:26:52;16.00;99.90
31979;DHT22;18502;43.574;1.276;2023-10-13T05:29:44;16.00;99.90
31979;DHT22;18502;43.574;1.276;2023-10-13T05:32:29;16.00;99.90
31979;DHT22;18502;43.574;1.276;2023-10-13T05:35:14;16.00;99.90
31979;DHT22;18502;43.574;1.276;2023-10-13T05:38:00;16.00;99.90
31979;DHT22;18502;43.574;1.276;2023-10-13T05:40:58;16.00;99.90
31979;DHT22;18502;43.574;1.276;2023-10-13T05:43:43;16.00;99.90
31979;DHT22;18502;43.574;1.276;2023-10-13T05:46:27;15.90;99.90
31979;DHT22;18502;43.574;1.276;2023-10-13T05:48:56;15.90;99.90
31979;DHT22;18502;43.574;1.276;2023-10-13T05:51:31;15.90;99.90
31979;DHT22;18502;43.574;1.276;2023-10-13T05:54:12;15.90;99.90
31979;DHT22;18502;43.574;1.276;2023-10-13T05:56:49;15.80;99.90
31979;DHT22;18502;43.574;1.276;2023-10-13T05:59:35;15.90;99.90
31979;DHT22;18502;43.574;1.276;2023-10-13T06:02:21;16.00;99.90
31979;DHT22;18502;43.574;1.276;2023-10-13T06:05:10;16.00;99.90
31979;DHT22;18502;43.574;1.276;2023-10-13T06:07:55;16.00;99.90
31979;DHT22;18502;43.574;1.276;2023-10-13T06:10:40;16.10;99.90
31979;DHT22;18502;43.574;1.276;2023-10-13T06:13:24;16.00;99.90
31979;DHT22;18502;43.574;1.276;2023-10-13T06:16:13;16.20;99.90
31979;DHT22;18502;43.574;1.276;2023-10-13T06:18:58;16.30;99.90
31979;DHT22;18502;43.574;1.276;2023-10-13T06:21:43;16.40;99.90
31979;DHT22;18502;43.574;1.276;2023-10-13T06:24:28;16.50;99.90
31979;DHT22;18502;43.574;1.276;2023-10-13T06:27:12;16.50;99.90
31979;DHT22;18502;43.574;1.276;2023-10-13T06:29:57;16.60;99.90
31979;DHT22;18502;43.574;1.276;2023-10-13T06:32:23;16.70;99.90
31979;DHT22;18502;43.574;1.276;2023-10-13T06:35:01;16.90;99.90
31979;DHT22;18502;43.574;1.276;2023-10-13T06:37:47;17.10;99.90
31979;DHT22;18502;43.574;1.276;2023-10-13T06:40:12;17.20;99.90
31979;DHT22;18502;43.574;1.276;2023-10-13T06:42:56;17.30;99.90
31979;DHT22;18502;43.574;1.276;2023-10-13T06:45:37;17.30;99.90
31979;DHT22;18502;43.574;1.276;2023-10-13T06:48:04;17.40;99.90
31979;DHT22;18502;43.574;1.276;2023-10-13T06:50:30;17.60;99.90
31979;DHT22;18502;43.574;1.276;2023-10-13T06:53:04;17.80;99.90
31979;DHT22;18502;43.574;1.276;2023-10-13T06:55:30;17.90;99.90
31979;DHT22;18502;43.574;1.276;2023-10-13T06:58:04;18.00;99.90
31979;DHT22;18502;43.574;1.276;2023-10-13T07:00:32;18.10;99.90
31979;DHT22;18502;43.574;1.276;2023-10-13T07:03:04;18.20;99.90
31979;DHT22;18502;43.574;1.276;2023-10-13T07:05:36;18.40;99.90
31979;DHT22;18502;43.574;1.276;2023-10-13T07:08:04;18.50;99.90
31979;DHT22;18502;43.574;1.276;2023-10-13T07:10:30;18.70;99.90
31979;DHT22;18502;43.574;1.276;2023-10-13T07:12:58;18.80;99.90
31979;DHT22;18502;43.574;1.276;2023-10-13T07:15:26;18.90;99.90
31979;DHT22;18502;43.574;1.276;2023-10-13T07:17:54;19.00;99.90
31979;DHT22;18502;43.574;1.276;2023-10-13T07:20:25;19.10;99.90
31979;DHT22;18502;43.574;1.276;2023-10-13T07:23:00;19.20;99.90
31979;DHT22;18502;43.574;1.276;2023-10-13T07:25:29;19.20;99.90
31979;DHT22;18502;43.574;1.276;2023-10-13T07:28:01;19.20;99.90
31979;DHT22;18502;43.574;1.276;2023-10-13T07:30:29;19.20;99.90
31979;DHT22;18502;43.574;1.276;2023-10-13T07:32:56;19.30;99.90
31979;DHT22;18502;43.574;1.276;2023-10-13T07:35:25;19.30;99.90
31979;DHT22;18502;43.574;1.276;2023-10-13T07:37:51;19.40;99.90
31979;DHT22;18502;43.574;1.276;2023-10-13T07:40:20;19.40;99.90
31979;DHT22;18502;43.574;1.276;2023-10-13T07:42:53;19.50;99.90
31979;DHT22;18502;43.574;1.276;2023-10-13T07:45:27;19.60;99.90
31979;DHT22;18502;43.574;1.276;2023-10-13T07:48:02;19.80;99.90
31979;DHT22;18502;43.574;1.276;2023-10-13T07:50:34;19.90;99.90
31979;DHT22;18502;43.574;1.276;2023-10-13T07:52:59;20.00;99.90
31979;DHT22;18502;43.574;1.276;2023-10-13T07:55:31;20.20;99.90
31979;DHT22;18502;43.574;1.276;2023-10-13T07:58:04;20.20;99.90
31979;DHT22;18502;43.574;1.276;2023-10-13T08:00:33;20.40;99.90
31979;DHT22;18502;43.574;1.276;2023-10-13T08:03:14;20.50;99.90
31979;DHT22;18502;43.574;1.276;2023-10-13T08:05:52;20.50;99.90
31979;DHT22;18502;43.574;1.276;2023-10-13T08:08:27;20.60;99.90
31979;DHT22;18502;43.574;1.276;2023-10-13T08:11:01;20.70;99.90
31979;DHT22;18502;43.574;1.276;2023-10-13T08:13:35;20.90;99.90
31979;DHT22;18502;43.574;1.276;2023-10-13T08:16:03;21.10;99.90
31979;DHT22;18502;43.574;1.276;2023-10-13T08:18:35;21.20;99.90
31979;DHT22;18502;43.574;1.276;2023-10-13T08:21:02;21.40;99.90
31979;DHT22;18502;43.574;1.276;2023-10-13T08:23:41;21.40;99.90
31979;DHT22;18502;43.574;1.276;2023-10-13T08:26:19;21.20;99.90
31979;DHT22;18502;43.574;1.276;2023-10-13T08:29:04;21.30;99.90
31979;DHT22;18502;43.574;1.276;2023-10-13T08:31:49;21.70;99.90
31979;DHT22;18502;43.574;1.276;2023-10-13T08:34:36;21.90;99.90
31979;DHT22;18502;43.574;1.276;2023-10-13T08:37:08;21.70;99.90
31979;DHT22;18502;43.574;1.276;2023-10-13T08:39:49;21.70;99.90
31979;DHT22;18502;43.574;1.276;2023-10-13T08:42:35;22.00;99.90
31979;DHT22;18502;43.574;1.276;2023-10-13T08:45:16;21.90;99.90
31979;DHT22;18502;43.574;1.276;2023-10-13T08:47:52;22.00;99.90
31979;DHT22;18502;43.574;1.276;2023-10-13T08:50:51;22.30;99.90
31979;DHT22;18502;43.574;1.276;2023-10-13T08:56:10;22.60;99.90
31979;DHT22;18502;43.574;1.276;2023-10-13T08:58:48;22.50;99.90
31979;DHT22;18502;43.574;1.276;2023-10-13T09:04:06;23.10;99.90
31979;DHT22;18502;43.574;1.276;2023-10-13T09:07:00;23.20;99.90
31979;DHT22;18502;43.574;1.276;2023-10-13T09:12:30;24.10;99.90
31979;DHT22;18502;43.574;1.276;2023-10-13T09:15:00;24.40;99.90
31979;DHT22;18502;43.574;1.276;2023-10-13T09:17:48;24.00;99.90
31979;DHT22;18502;43.574;1.276;2023-10-13T09:20:27;24.40;99.90
31979;DHT22;18502;43.574;1.276;2023-10-13T09:23:13;24.80;99.90
31979;DHT22;18502;43.574;1.276;2023-10-13T09:25:49;25.10;99.90
31979;DHT22;18502;43.574;1.276;2023-10-13T09:28:35;25.90;99.90
31979;DHT22;18502;43.574;1.276;2023-10-13T09:31:02;26.20;99.90
31979;DHT22;18502;43.574;1.276;2023-10-13T09:33:29;26.20;99.90
31979;DHT22;18502;43.574;1.276;2023-10-13T09:36:15;27.70;99.90
31979;DHT22;18502;43.574;1.276;2023-10-13T09:38:43;27.00;99.90
31979;DHT22;18502;43.574;1.276;2023-10-13T09:41:29;28.00;99.90
31979;DHT22;18502;43.574;1.276;2023-10-13T09:43:58;27.70;99.90
31979;DHT22;18502;43.574;1.276;2023-10-13T09:46:26;27.80;99.90
31979;DHT22;18502;43.574;1.276;2023-10-13T09:49:12;26.40;99.90
31979;DHT22;18502;43.574;1.276;2023-10-13T09:51:48;26.40;99.90
31979;DHT22;18502;43.574;1.276;2023-10-13T09:54:22;26.30;99.90
31979;DHT22;18502;43.574;1.276;2023-10-13T09:56:59;25.90;99.90
31979;DHT22;18502;43.574;1.276;2023-10-13T09:59:41;25.40;99.90
31979;DHT22;18502;43.574;1.276;2023-10-13T10:02:14;25.60;99.90
31979;DHT22;18502;43.574;1.276;2023-10-13T10:04:51;25.60;99.90
31979;DHT22;18502;43.574;1.276;2023-10-13T10:07:27;26.10;99.90
31979;DHT22;18502;43.574;1.276;2023-10-13T10:09:58;25.60;99.90
31979;DHT22;18502;43.574;1.276;2023-10-13T10:17:24;26.40;99.90
31979;DHT22;18502;43.574;1.276;2023-10-13T10:19:55;25.80;99.90
31979;DHT22;18502;43.574;1.276;2023-10-13T10:22:41;26.40;99.90
31979;DHT22;18502;43.574;1.276;2023-10-13T10:25:13;26.60;99.90
31979;DHT22;18502;43.574;1.276;2023-10-13T10:27:56;26.80;99.90
31979;DHT22;18502;43.574;1.276;2023-10-13T10:30:28;27.30;99.90
31979;DHT22;18502;43.574;1.276;2023-10-13T10:32:56;26.50;99.90
31979;DHT22;18502;43.574;1.276;2023-10-13T10:35:26;26.50;99.90
31979;DHT22;18502;43.574;1.276;2023-10-13T10:38:18;27.00;99.90
31979;DHT22;18502;43.574;1.276;2023-10-13T10:40:59;26.90;99.90
31979;DHT22;18502;43.574;1.276;2023-10-13T10:46:27;28.50;99.90
31979;DHT22;18502;43.574;1.276;2023-10-13T10:48:56;30.90;99.90
31979;DHT22;18502;43.574;1.276;2023-10-13T10:51:27;29.90;99.90
31979;DHT22;18502;43.574;1.276;2023-10-13T10:54:18;30.40;99.90
31979;DHT22;18502;43.574;1.276;2023-10-13T10:56:44;30.70;99.90
31979;DHT22;18502;43.574;1.276;2023-10-13T10:59:18;31.00;99.90
31979;DHT22;18502;43.574;1.276;2023-10-13T11:01:46;30.60;99.90
31979;DHT22;18502;43.574;1.276;2023-10-13T11:04:17;30.20;99.90
31979;DHT22;18502;43.574;1.276;2023-10-13T11:06:53;33.70;99.90
31979;DHT22;18502;43.574;1.276;2023-10-13T11:09:43;33.40;99.90
31979;DHT22;18502;43.574;1.276;2023-10-13T11:12:10;31.20;99.90
31979;DHT22;18502;43.574;1.276;2023-10-13T11:15:02;30.20;99.90
31979;DHT22;18502;43.574;1.276;2023-10-13T11:17:30;30.70;99.90
31979;DHT22;18502;43.574;1.276;2023-10-13T11:20:14;29.80;99.90
31979;DHT22;18502;43.574;1.276;2023-10-13T11:22:46;31.60;99.90
31979;DHT22;18502;43.574;1.276;2023-10-13T11:25:21;30.90;99.90
31979;DHT22;18502;43.574;1.276;2023-10-13T11:27:55;31.20;99.90
31979;DHT22;18502;43.574;1.276;2023-10-13T11:30:22;32.40;99.90
31979;DHT22;18502;43.574;1.276;2023-10-13T11:33:03;32.20;99.90
31979;DHT22;18502;43.574;1.276;2023-10-13T11:35:36;32.10;99.90
31979;DHT22;18502;43.574;1.276;2023-10-13T11:43:37;32.40;99.90
31979;DHT22;18502;43.574;1.276;2023-10-13T11:48:35;32.80;99.90
31979;DHT22;18502;43.574;1.276;2023-10-13T11:51:06;30.90;99.90
31979;DHT22;18502;43.574;1.276;2023-10-13T11:53:38;32.00;99.90
31979;DHT22;18502;43.574;1.276;2023-10-13T11:56:04;32.00;99.90
31979;DHT22;18502;43.574;1.276;2023-10-13T11:58:37;31.70;99.90
31979;DHT22;18502;43.574;1.276;2023-10-13T12:01:03;31.70;99.90
31979;DHT22;18502;43.574;1.276;2023-10-13T12:03:41;30.90;99.90
31979;DHT22;18502;43.574;1.276;2023-10-13T12:06:27;30.90;99.90
31979;DHT22;18502;43.574;1.276;2023-10-13T12:09:12;31.30;99.90
31979;DHT22;18502;43.574;1.276;2023-10-13T12:11:38;31.40;99.90
31979;DHT22;18502;43.574;1.276;2023-10-13T12:14:09;32.20;99.90
31979;DHT22;18502;43.574;1.276;2023-10-13T12:16:53;32.60;99.90
31979;DHT22;18502;43.574;1.276;2023-10-13T12:19:25;34.70;99.90
31979;DHT22;18502;43.574;1.276;2023-10-13T12:21:53;33.90;99.90
31979;DHT22;18502;43.574;1.276;2023-10-13T12:24:23;31.70;99.90
31979;DHT22;18502;43.574;1.276;2023-10-13T12:27:04;32.10;99.90
31979;DHT22;18502;43.574;1.276;2023-10-13T12:29:49;32.20;99.90
31979;DHT22;18502;43.574;1.276;2023-10-13T12:32:17;31.40;99.90
31979;DHT22;18502;43.574;1.276;2023-10-13T12:34:51;32.20;99.90
31979;DHT22;18502;43.574;1.276;2023-10-13T12:37:23;32.40;99.90
31979;DHT22;18502;43.574;1.276;2023-10-13T12:40:04;31.70;99.90
31979;DHT22;18502;43.574;1.276;2023-10-13T12:42:49;31.80;99.90
31979;DHT22;18502;43.574;1.276;2023-10-13T12:45:33;33.30;99.90
31979;DHT22;18502;43.574;1.276;2023-10-13T12:48:22;32.60;99.90
31979;DHT22;18502;43.574;1.276;2023-10-13T12:51:06;32.80;99.90
31979;DHT22;18502;43.574;1.276;2023-10-13T12:54:06;32.50;99.90
31979;DHT22;18502;43.574;1.276;2023-10-13T12:56:39;34.10;99.90
31979;DHT22;18502;43.574;1.276;2023-10-13T12:59:09;33.90;99.90
31979;DHT22;18502;43.574;1.276;2023-10-13T13:01:39;34.50;99.90
31979;DHT22;18502;43.574;1.276;2023-10-13T13:04:08;36.30;99.90
31979;DHT22;18502;43.574;1.276;2023-10-13T13:06:37;34.60;99.90
31979;DHT22;18502;43.574;1.276;2023-10-13T13:09:05;35.40;99.90
31979;DHT22;18502;43.574;1.276;2023-10-13T13:11:35;36.10;99.90
31979;DHT22;18502;43.574;1.276;2023-10-13T13:14:05;38.20;99.90
31979;DHT22;18502;43.574;1.276;2023-10-13T13:16:33;36.90;99.90
31979;DHT22;18502;43.574;1.276;2023-10-13T13:18:59;33.40;99.90
31979;DHT22;18502;43.574;1.276;2023-10-13T13:21:28;34.10;99.90
31979;DHT22;18502;43.574;1.276;2023-10-13T13:23:54;34.70;99.90
31979;DHT22;18502;43.574;1.276;2023-10-13T13:26:24;33.40;99.90
31979;DHT22;18502;43.574;1.276;2023-10-13T13:28:50;32.70;99.90
31979;DHT22;18502;43.574;1.276;2023-10-13T13:31:20;32.30;99.90
31979;DHT22;18502;43.574;1.276;2023-10-13T13:33:52;31.70;99.90
31979;DHT22;18502;43.574;1.276;2023-10-13T13:36:17;31.90;99.90
31979;DHT22;18502;43.574;1.276;2023-10-13T13:38:45;32.30;99.90
31979;DHT22;18502;43.574;1.276;2023-10-13T13:41:21;33.80;99.90
31979;DHT22;18502;43.574;1.276;2023-10-13T13:43:48;33.50;99.90
31979;DHT22;18502;43.574;1.276;2023-10-13T13:46:22;35.20;99.90
31979;DHT22;18502;43.574;1.276;2023-10-13T13:48:55;35.60;99.90
31979;DHT22;18502;43.574;1.276;2023-10-13T13:51:26;38.00;99.90
31979;DHT22;18502;43.574;1.276;2023-10-13T13:53:56;36.30;99.90
31979;DHT22;18502;43.574;1.276;2023-10-13T13:56:23;34.30;99.90
31979;DHT22;18502;43.574;1.276;2023-10-13T13:58:54;34.10;99.90
31979;DHT22;18502;43.574;1.276;2023-10-13T14:01:21;34.70;99.90
31979;DHT22;18502;43.574;1.276;2023-10-13T14:03:52;37.90;99.90
31979;DHT22;18502;43.574;1.276;2023-10-13T14:06:23;36.30;99.90
31979;DHT22;18502;43.574;1.276;2023-10-13T14:08:51;36.30;99.90
31979;DHT22;18502;43.574;1.276;2023-10-13T14:11:20;37.00;99.90
31979;DHT22;18502;43.574;1.276;2023-10-13T14:13:46;37.10;99.90
31979;DHT22;18502;43.574;1.276;2023-10-13T14:16:19;36.70;99.90
31979;DHT22;18502;43.574;1.276;2023-10-13T14:18:46;36.30;99.90
31979;DHT22;18502;43.574;1.276;2023-10-13T14:21:12;36.10;99.90
31979;DHT22;18502;43.574;1.276;2023-10-13T14:23:52;37.60;99.90
31979;DHT22;18502;43.574;1.276;2023-10-13T14:26:21;36.50;99.90
31979;DHT22;18502;43.574;1.276;2023-10-13T14:28:48;36.30;99.90
31979;DHT22;18502;43.574;1.276;2023-10-13T14:31:33;38.70;99.90
31979;DHT22;18502;43.574;1.276;2023-10-13T14:34:01;38.40;99.90
31979;DHT22;18502;43.574;1.276;2023-10-13T14:36:27;39.20;99.90
31979;DHT22;18502;43.574;1.276;2023-10-13T14:39:00;37.70;99.90
31979;DHT22;18502;43.574;1.276;2023-10-13T14:41:26;37.70;99.90
31979;DHT22;18502;43.574;1.276;2023-10-13T14:43:52;35.90;99.90
31979;DHT22;18502;43.574;1.276;2023-10-13T14:46:19;36.00;99.90
31979;DHT22;18502;43.574;1.276;2023-10-13T14:48:52;35.40;99.90
31979;DHT22;18502;43.574;1.276;2023-10-13T14:51:18;36.30;99.90
31979;DHT22;18502;43.574;1.276;2023-10-13T14:53:48;36.60;99.90
31979;DHT22;18502;43.574;1.276;2023-10-13T14:56:15;36.40;99.90
31979;DHT22;18502;43.574;1.276;2023-10-13T14:58:42;34.80;99.90
31979;DHT22;18502;43.574;1.276;2023-10-13T15:01:16;35.10;99.90
31979;DHT22;18502;43.574;1.276;2023-10-13T15:03:46;35.00;99.90
31979;DHT22;18502;43.574;1.276;2023-10-13T15:06:19;35.90;99.90
31979;DHT22;18502;43.574;1.276;2023-10-13T15:09:05;35.20;99.90
31979;DHT22;18502;43.574;1.276;2023-10-13T15:11:36;35.00;99.90
31979;DHT22;18502;43.574;1.276;2023-10-13T15:14:03;35.00;99.90
31979;DHT22;18502;43.574;1.276;2023-10-13T15:16:29;36.40;99.90
31979;DHT22;18502;43.574;1.276;2023-10-13T15:18:55;34.30;99.90
31979;DHT22;18502;43.574;1.276;2023-10-13T15:21:28;34.40;99.90
31979;DHT22;18502;43.574;1.276;2023-10-13T15:24:07;36.60;99.90
31979;DHT22;18502;43.574;1.276;2023-10-13T15:26:42;35.10;99.90
31979;DHT22;18502;43.574;1.276;2023-10-13T15:29:19;34.90;99.90
31979;DHT22;18502;43.574;1.276;2023-10-13T15:31:51;33.80;99.90
31979;DHT22;18502;43.574;1.276;2023-10-13T15:34:28;33.20;99.90
31979;DHT22;18502;43.574;1.276;2023-10-13T15:36:55;35.00;99.90
31979;DHT22;18502;43.574;1.276;2023-10-13T15:39:22;34.90;99.90
31979;DHT22;18502;43.574;1.276;2023-10-13T15:41:54;33.30;99.90
31979;DHT22;18502;43.574;1.276;2023-10-13T15:44:24;32.20;99.90
31979;DHT22;18502;43.574;1.276;2023-10-13T15:46:54;33.00;99.90
31979;DHT22;18502;43.574;1.276;2023-10-13T15:49:21;31.00;99.90
31979;DHT22;18502;43.574;1.276;2023-10-13T15:51:47;31.20;99.90
31979;DHT22;18502;43.574;1.276;2023-10-13T15:54:13;31.60;99.90
31979;DHT22;18502;43.574;1.276;2023-10-13T15:56:46;32.20;99.90
31979;DHT22;18502;43.574;1.276;2023-10-13T15:59:12;31.60;99.90
31979;DHT22;18502;43.574;1.276;2023-10-13T16:01:38;30.00;99.90
31979;DHT22;18502;43.574;1.276;2023-10-13T16:04:06;29.40;99.90
31979;DHT22;18502;43.574;1.276;2023-10-13T16:06:46;28.40;99.90
31979;DHT22;18502;43.574;1.276;2023-10-13T16:09:15;27.80;99.90
31979;DHT22;18502;43.574;1.276;2023-10-13T16:11:42;27.60;99.90
31979;DHT22;18502;43.574;1.276;2023-10-13T16:14:08;27.20;99.90
31979;DHT22;18502;43.574;1.276;2023-10-13T16:16:36;26.90;99.90
31979;DHT22;18502;43.574;1.276;2023-10-13T16:19:02;26.60;99.90
31979;DHT22;18502;43.574;1.276;2023-10-13T16:21:30;26.50;99.90
31979;DHT22;18502;43.574;1.276;2023-10-13T16:23:56;26.30;99.90
31979;DHT22;18502;43.574;1.276;2023-10-13T16:26:21;26.30;99.90
31979;DHT22;18502;43.574;1.276;2023-10-13T16:28:51;26.10;99.90
31979;DHT22;18502;43.574;1.276;2023-10-13T16:31:23;26.00;99.90
31979;DHT22;18502;43.574;1.276;2023-10-13T16:33:53;25.90;99.90
31979;DHT22;18502;43.574;1.276;2023-10-13T16:36:21;25.80;99.90
31979;DHT22;18502;43.574;1.276;2023-10-13T16:38:50;25.70;99.90
31979;DHT22;18502;43.574;1.276;2023-10-13T16:41:16;25.70;99.90
31979;DHT22;18502;43.574;1.276;2023-10-13T16:43:42;25.60;99.90